Lucas Cabrera

Olheiro-Chefe - Betis
21 Nov 2027
Domingo
Processo

Personalidade

Adaptabilidade (19) Ambição (18) Controvérsia (1) Lealdade (16) Pressão (14) Profissionalismo (19) Espírito Esportivo (16) Temperamento (15)

Perfil

Estilo de Treinamento Democrático
Licença Continental Pro
Determinação 15
Gestão de Pessoas 15
Motivação 13
Disciplina 15
Satisfação no Trabalho
28%
Fadiga
0%
Função Olheiro-Chefe
Salário 21.2K p/s
Contrato 14.03.2029

Desempenho

Comportamento Bom
Eficácia do Treinamento
23%
Desenvolvimento do Jogador
50%
Prevenção de Lesões
35%
Implementação Tática
50%

Eventos Recentes

Recomendou um alvo de transferência agora
Recomendou um alvo de transferência agora
Recomendou um alvo de transferência agora
Avaliou um jogador agora
Avaliou um jogador agora
Avaliou um jogador agora
Avaliou um jogador agora
Observou uma partida agora

Monitorando agora

175
Jogador Clube Status Habilidade Confiança Observado Última observação Último voto
Victor Hernandez Santa Fe Ativo 120 / 116 40% 16 20.11.2027 -
Vinícius Lira São Paulo Ativo 112 / 132 40% 6 20.11.2027 -
Josh King Newcastle United Ativo 145 / 152 40% 6 19.11.2027 -
Josh Nichols Oldham Athletic Ativo 116 / 134 40% 4 19.11.2027 -
Celías Ingenthron Platense Ativo 111 / 111 40% 3 18.11.2027 -
Axel Tape Bayer Leverkusen Ativo 128 / 144 40% 4 18.11.2027 -
Giovanni Leoni Lincoln City Ativo 138 / 154 40% 5 17.11.2027 -
Kauã Moraes Flamengo Ativo 132 / 123 40% 4 17.11.2027 -
Agustín De la Cuesta Racing Ativo 111 / 112 40% 3 16.11.2027 -
Lewis Miley Newcastle United Ativo 150 / 155 40% 14 15.11.2027 -
Pau Cubarsí Real Sociedad Ativo 162 / 173 40% 6 15.11.2027 -
Matias Siltanen Malmo FF Ativo 120 / 126 40% 3 15.11.2027 -
Alejandro Almaraz NK Celje Ativo 112 / 126 40% 7 14.11.2027 -
Jorrel Hato Chelsea Ativo 154 / 162 40% 25 13.11.2027 -
Juan Manuel Villalba Tigre Ativo 117 / 139 40% 4 13.11.2027 -
Josh Acheampong Everton Ativo 140 / 139 40% 3 13.11.2027 -
Thiago Helguera Braga Ativo 125 / 129 40% 3 09.11.2027 -
Héctor Fort Real Sociedad Ativo 144 / 137 40% 1 08.11.2027 -
Archie Gray Southampton Ativo 147 / 153 40% 2 04.11.2027 -
Caleb Yirenkyi Coventry City Ativo 143 / 146 40% 11 03.11.2027 -
Honest Ahanor Atalanta Ativo 135 / 134 40% 1 03.11.2027 -
Agustín Obregón River Plate Ativo 112 / 102 40% 7 02.11.2027 -
Julián Bazán New York Red Bulls Ativo 111 / 130 40% 5 02.11.2027 -
Adrian Skogmar Malmo FF Ativo 119 / 120 40% 1 02.11.2027 -
Nazareno Roselli Defensa y Justicia Ativo 108 / 129 40% 7 28.10.2027 -
Vitor Reis Manchester City Ativo 140 / 151 40% 4 28.10.2027 -
Ollie Scarles West Ham United Ativo 134 / 146 40% 30 27.10.2027 -
Lucas Bergvall Tottenham Ativo 151 / 148 40% 3 18.10.2027 -
Adam Aznou Everton Ativo 126 / 128 40% 3 18.10.2027 -
Agustín Medina Lanús Ativo 116 / 121 40% 1 17.10.2027 -
Ayden Heaven Portsmouth Ativo 144 / 142 40% 3 15.10.2027 -
Santiago Murillo Alianza Petrolera Ativo 131 / 130 40% 4 13.10.2027 -
Ulises Giménez River Plate Ativo 109 / 119 40% 3 11.10.2027 -
Yusi Alavés Ativo 137 / 144 40% 8 01.10.2027 -
Eliás Montiel Borussia Dortmund Negociando 138 / 135 40% 4 29.09.2027 -
Jorge Salinas Racing Santander Ativo 132 / 137 40% 1 25.09.2027 -
Malick Yalcouyé Brighton Ativo 132 / 144 40% 1 23.09.2027 -
Veljko Milosavljević Bournemouth Ativo 143 / 144 40% 1 21.09.2027 -
Teo Rodríguez Pagano Boca Juniors Ativo 121 / 110 40% 1 19.09.2027 -
Gabriel Moscardo Paris Saint-Germain Ativo 135 / 141 40% 2 16.09.2027 -
Assane Diao Como Ativo 151 / 144 40% 31 20.06.2027 -
Leo Castledine Middlesbrough Ativo 130 / 136 40% 7 20.06.2027 -
Lautaro Millán Osasuna Ativo 130 / 121 40% 7 20.06.2027 -
Olívio Tomé Benfica Ativo 116 / 122 40% 7 19.06.2027 -
Mateus Mané Burnley Ativo 137 / 148 40% 7 19.06.2027 -
Jan Virgili Club Brugge Ativo 133 / 137 40% 8 17.06.2027 -
William Gomes Porto Ativo 148 / 151 40% 7 17.06.2027 -
Jesús Rodríguez Como Ativo 142 / 146 40% 6 16.06.2027 -
Jan Bürger Northampton Town Ativo 109 / 116 40% 3 13.06.2027 -
Jonathan Asp-Jensen Deportivo La Coruña Ativo 126 / 124 40% 2 13.06.2027 -
Ethan Williams Peterborough United Ativo 116 / 127 40% 7 10.06.2027 -
Kirill Glebov CSKA Moscow Ativo 130 / 140 40% 14 08.06.2027 -
Sindre Walle Egeli Udinese Ativo 133 / 140 40% 3 08.06.2027 -
Rafael Moreno Atletico Venezuela Ativo 112 / 120 40% 1 08.06.2027 -
Kostantis Tzolakis Betis Negociando 136 / 139 67% 1 01.06.2027 -
Kang-In Lee Villarreal Negociando 157 / 158 66% 1 01.06.2027 -
Evan N'Dicka AS Roma Perdido 155 / 155 66% 1 01.06.2027 -
Joško Gvardiol Manchester City Relatório pronto 162 / 163 67% 1 01.06.2027 Aprovar
Francis Gomez Cardiff City Ativo 109 / 109 40% 3 31.05.2027 -
Izan Merino Málaga Ativo 126 / 124 40% 3 31.05.2027 -
Romelle Donovan Brentford Ativo 124 / 133 40% 6 29.05.2027 -
Sascha Britschgi AC Milan Ativo 122 / 120 40% 1 29.05.2027 -
Yussif Saidu Zaragoza Ativo 124 / 114 40% 7 26.05.2027 -
João Teixeira Porto Ativo 110 / 120 40% 3 26.05.2027 -
Samuel Lucero Defensa y Justicia Ativo 114 / 106 40% 2 25.05.2027 -
Noah Nartey Olympique Lyonnais Ativo 135 / 144 40% 2 25.05.2027 -
Oscar Schwartau Norwich City Ativo 125 / 133 40% 4 22.05.2027 -
Gianluca Prestianni Benfica Ativo 134 / 135 40% 7 21.05.2027 -
Nikolaus Wurmbrand Girona Ativo 119 / 139 40% 2 20.05.2027 -
Othmane Maamma Watford Ativo 122 / 118 40% 9 18.05.2027 -
Salvador Blopá Sporting CP Ativo 112 / 124 40% 3 17.05.2027 -
Miguel Figueiredo Benfica Ativo 105 / 122 40% 1 17.05.2027 -
Mohamadou Kanté Crawley Town Ativo 117 / 127 40% 4 11.05.2027 -
Bazoumana Touré Newcastle United Ativo 142 / 132 40% 2 07.05.2027 -
Gorka Gorosabel Real Sociedad Ativo 108 / 129 67% 5 07.05.2027 -
Louis Leroux FC Nantes Ativo 125 / 119 40% 5 07.05.2027 -
Chemsdine Talbi Sunderland Ativo 146 / 146 40% 16 02.05.2027 -
James Bacca La Equidad Ativo 130 / 114 40% 2 29.04.2027 -
Finn Jeltsch VfB Stuttgart Ativo 132 / 134 40% 2 28.04.2027 -
José Pachuca Puebla Ativo 112 / 103 40% 2 28.04.2027 -
Matvey Kislyak CSKA Moscow Ativo 134 / 152 40% 1 24.04.2027 -
Victor Froholdt Porto Ativo 151 / 160 40% 3 23.04.2027 -
Lucas Høgsberg RC Strasbourg Ativo 136 / 135 40% 5 18.04.2027 -
Lovro Zvonarek Estrela da Amadora Ativo 124 / 137 40% 2 16.04.2027 -
Gessime Yassine RC Strasbourg Ativo 120 / 121 40% 2 15.04.2027 -
Christian Mawissa Monaco Ativo 127 / 135 40% 2 11.04.2027 -
Luís Guilherme Sporting CP Ativo 129 / 130 40% 1 06.04.2027 -
Emirhan Başyiğit Sivasspor Ativo 113 / 108 40% 1 06.04.2027 -
Kobbie Mainoo Manchester United Ativo 153 / 167 40% 9 01.04.2027 -
Alpha Touré FC Metz Ativo 112 / 111 40% 1 29.03.2027 -
Malick Fofana Sunderland Ativo 142 / 144 40% 4 24.03.2027 -
Yael Padilla Tijuana Ativo 110 / 111 40% 7 22.03.2027 -
Antoni Milambo Brentford Ativo 138 / 147 40% 3 21.03.2027 -
Kenan Yıldız Juventus Ativo 159 / 164 40% 7 19.03.2027 -
Rocco Vata Watford Ativo 125 / 121 40% 7 17.03.2027 -
Joaquin Seys Club Brugge Ativo 131 / 135 40% 1 16.03.2027 -
Mathys Tel Tottenham Ativo 145 / 142 40% 3 14.03.2027 -
Dehmaine Tabibou FC Nantes Ativo 125 / 131 40% 2 04.03.2027 -
Nico O'Reilly Manchester City Ativo 153 / 159 40% 11 03.03.2027 -
David Mella Deportivo La Coruña Ativo 130 / 119 40% 1 19.02.2027 -
Marc Pubill Atlético Madrid Ativo 146 / 140 40% 4 08.02.2027 -
Nico González Newcastle United Ativo 161 / 172 40% 1 08.02.2027 -
Manu Koné AS Roma Ativo 167 / 154 40% 2 07.02.2027 Mais informações
Boubacar Kamara Aston Villa Ativo 163 / 158 40% 1 06.02.2027 Mais informações
Moisés Caicedo Chelsea Ativo 174 / 158 40% 1 06.02.2027 -
Johnny Cardoso Atlético Madrid Ativo 156 / 159 40% 2 05.02.2027 -
Amadou Onana Aston Villa Ativo 153 / 160 40% 1 05.02.2027 -
Sven Botman Newcastle United Ativo 156 / 159 40% 1 04.02.2027 -
Jarrad Branthwaite Everton Ativo 154 / 160 40% 1 04.02.2027 -
Alex Scott Bournemouth Ativo 151 / 154 40% 1 03.02.2027 -
Curtis Jones Inter Ativo 153 / 151 40% 1 03.02.2027 Mais informações
Lewis Hall Newcastle United Ativo 152 / 146 40% 2 02.02.2027 -
Tyler Adams Bournemouth Ativo 152 / 155 40% 1 02.02.2027 -
Óscar Mingueza Crystal Palace Ativo 150 / 153 40% 1 01.02.2027 -
Yehvann Diouf OGC Nice Ativo 136 / 132 40% 1 18.01.2027 -
Joseph Leclercq Tottenham Ativo 154 / 144 40% 1 18.01.2027 -
Bobby Clark Derby County Ativo 123 / 139 40% 6 14.01.2027 -
Tristan Degreef Anderlecht Ativo 129 / 124 40% 4 10.01.2027 -
Tomás Aranda Boca Juniors Ativo 116 / 103 40% 6 02.01.2027 -
Nico Williams Athletic Bilbao Ativo 161 / 159 83% 1 02.01.2027 Aprovar
Fotis Ioannidis Estrela da Amadora Negociando 136 / 136 67% 1 01.01.2027 -
Tyler Morton Olympique Lyonnais Ativo 142 / 145 68% 1 01.01.2027 Aprovar
Robert FC Copenhagen Ativo 127 / 135 40% 4 29.12.2026 -
Vinícius Júnior Paris Saint-Germain Ativo 173 / 173 40% 3 28.12.2026 -
Christian Pulisic AC Milan Ativo 167 / 152 40% 1 28.12.2026 -
Jorge De Frutos Rayo Vallecano Ativo 150 / 151 40% 1 28.12.2026 -
Cody Gakpo Liverpool Ativo 160 / 154 40% 5 26.12.2026 -
Luis Suárez Sporting CP Ativo 159 / 159 40% 1 26.12.2026 -
Joel Orlando Almagro Ativo 115 / 117 40% 11 20.12.2026 -
Facundo Di Biasi Gimnasia La Plata Ativo 119 / 138 40% 3 11.12.2026 -
Lautaro Vargas Unión de Santa Fe Ativo 114 / 116 40% 6 09.12.2026 -
Jeremías Merlo Gimnasia La Plata Ativo 125 / 126 40% 6 08.12.2026 -
Dani Olmo Barcelona Ativo 160 / 166 40% 2 07.12.2026 -
Ismaïla Sarr Crystal Palace Ativo 147 / 137 40% 1 07.12.2026 -
Ignacio Perruzzi San Lorenzo Ativo 117 / 129 40% 7 03.12.2026 -
Morgan Rogers Chelsea Ativo 156 / 170 40% 2 27.11.2026 -
Kevin Schade Chelsea Ativo 152 / 159 40% 2 27.11.2026 -
Mohammed Kudus Tottenham Ativo 153 / 158 40% 1 27.11.2026 -
Kai Havertz Arsenal Ativo 160 / 161 40% 4 26.11.2026 -
Alan Forneris Racing Club Ativo 112 / 103 40% 3 24.11.2026 -
Giovanni Baroni Talleres Ativo 101 / 112 40% 4 20.11.2026 -
Kyriani Sabbe Club Brugge Ativo 118 / 127 40% 1 17.11.2026 -
Joaquín Tobio Burgos Pachuca Ativo 121 / 120 40% 5 15.11.2026 -
Iliman N'Diaye Everton Ativo 159 / 164 40% 2 15.11.2026 -
Marcus Thuram Inter Ativo 166 / 170 40% 2 15.11.2026 -
Mateo Mendoza Godoy Cruz Ativo 121 / 115 40% 1 14.11.2026 -
Mikel Oyarzábal Real Sociedad Ativo 160 / 156 40% 2 12.11.2026 -
Matheus Cunha Manchester United Ativo 156 / 151 40% 4 08.11.2026 -
Themba Dala Black Aces Ativo 114 / 101 40% 1 05.11.2026 -
Ramiro Hernandes Belgrano Ativo 124 / 116 40% 2 04.11.2026 -
Gonçalo Guedes Real Sociedad Ativo 148 / 137 40% 3 03.11.2026 -
Lautaro Martínez Inter Ativo 172 / 163 40% 2 01.11.2026 -
Jarrod Bowen West Ham United Ativo 153 / 156 40% 1 01.11.2026 -
Julián Álvarez Atlético Madrid Ativo 172 / 181 40% 2 28.10.2026 -
Noah Sadiki Sunderland Ativo 145 / 159 40% 3 27.10.2026 -
Viktor Gyökeres Arsenal Ativo 153 / 143 40% 2 26.10.2026 -
Federico Chiesa Liverpool Ativo 157 / 142 40% 1 26.10.2026 -
Juan Velázquez Belgrano Ativo 124 / 136 40% 2 22.10.2026 -
Wilson Odobert Brighton Ativo 135 / 130 40% 1 20.10.2026 -
Diego Gaitán Maipú Ativo 101 / 122 40% 4 15.10.2026 -
Endrick Real Madrid Ativo 145 / 164 40% 3 12.10.2026 -
Matvey Safonov Paris Saint-Germain Ativo 151 / 154 40% 1 12.10.2026 -
Arijanet Murić Sassuolo Ativo 137 / 149 40% 1 12.10.2026 -
Rayan Cherki Manchester City Ativo 165 / 153 40% 1 04.10.2026 -
Marcus Rashford Manchester United Ativo 156 / 161 40% 1 04.10.2026 -
Ademola Lookman Atlético Madrid Ativo 157 / 166 40% 1 03.10.2026 -
Xavier Biscayzacú Defensor Sporting Ativo 127 / 116 40% 6 29.09.2026 -
Elías Báez Atlanta United FC Ativo 117 / 114 40% 1 25.09.2026 -
Valentino Acuña Newell's Old Boys Ativo 107 / 136 40% 1 19.09.2026 -
Karim Adeyemi Barcelona Ativo 147 / 150 40% 1 07.09.2026 -
Jonás Luna Wanderers Ativo 118 / 124 40% 1 26.08.2026 -
João Neves Paris Saint-Germain Ativo 167 / 168 40% 1 26.08.2026 -
Daijiro Chirino Almería Ativo 133 / 142 83% 1 24.08.2026 Aprovar
Joel Medina Independiente Ativo 104 / 139 40% 1 18.08.2026 -
Nahuel Arias San Lorenzo Ativo 115 / 109 40% 1 16.08.2026 -